Time;durP1;ratioP1;P1;durP2;ratioP2;P2;SDS_P1;SDS_P2;PMS_P1;PMS_P2;Temp;Humidity;BMP_temperature;BMP_pressure;BME280_temperature;BME280_humidity;BME280_pressure;Samples;Min_cycle;Max_cycle;Signal;HPM_P1;HPM_P2
2021/12/10 00:02:32;;;;;;;0.50;0.50;;;;;;;4.40;77.83;99339.75;5094042;28;20576;-83
2021/12/10 00:05:08;;;;;;;0.50;0.50;;;;;;;4.33;78.06;99333.00;5093531;29;20578;-82
2021/12/10 00:07:38;;;;;;;0.50;0.50;;;;;;;4.39;78.56;99337.16;5111283;28;20056;-83
2021/12/10 00:10:18;;;;;;;0.55;0.55;;;;;;;4.45;78.23;99326.66;5128654;28;20042;-82
2021/12/10 00:12:51;;;;;;;0.50;0.50;;;;;;;4.48;78.23;99320.53;5105119;28;20026;-82
2021/12/10 00:15:24;;;;;;;0.50;0.50;;;;;;;4.56;77.60;99318.59;5117540;28;20071;-83
2021/12/10 00:17:57;;;;;;;0.65;0.65;;;;;;;4.54;77.72;99316.03;5096700;29;20122;-83
2021/12/10 00:20:31;;;;;;;1.50;1.40;;;;;;;4.41;77.96;99317.22;5093737;28;20039;-82
2021/12/10 00:23:09;;;;;;;0.70;0.70;;;;;;;4.37;78.50;99313.84;5093665;29;20567;-82
2021/12/10 00:25:47;;;;;;;0.50;0.50;;;;;;;4.49;77.81;99304.03;5110746;28;20050;-82
2021/12/10 00:28:24;;;;;;;0.70;0.70;;;;;;;4.53;77.99;99292.66;5111869;29;20019;-82
2021/12/10 00:31:01;;;;;;;1.90;1.80;;;;;;;4.39;77.85;99293.88;5094479;28;20035;-82
2021/12/10 00:33:39;;;;;;;0.40;0.40;;;;;;;4.39;77.58;99278.31;5100189;28;20070;-82
2021/12/10 00:36:10;;;;;;;0.70;0.70;;;;;;;4.54;77.41;99281.41;5114381;29;20043;-82
2021/12/10 00:38:41;;;;;;;3.65;1.38;;;;;;;4.51;77.08;99274.53;5129494;28;20029;-82
2021/12/10 00:41:12;;;;;;;0.38;0.38;;;;;;;4.53;77.56;99274.50;5112448;29;20066;-83
2021/12/10 00:43:43;;;;;;;0.50;0.50;;;;;;;4.59;77.73;99271.72;5100691;28;20031;-84
2021/12/10 00:46:14;;;;;;;0.77;0.77;;;;;;;4.55;77.05;99270.97;5130460;28;20093;-83
2021/12/10 00:48:45;;;;;;;0.60;0.60;;;;;;;4.49;77.58;99262.50;5101509;28;20026;-83
2021/12/10 00:51:15;;;;;;;0.30;0.30;;;;;;;4.62;76.81;99265.63;5094240;29;20043;-83
2021/12/10 00:53:47;;;;;;;0.80;0.80;;;;;;;4.42;76.33;99261.78;5118588;28;20125;-83
2021/12/10 00:56:19;;;;;;;0.50;0.50;;;;;;;4.21;77.17;99260.56;5114392;29;20103;-83
2021/12/10 00:58:50;;;;;;;1.70;1.58;;;;;;;4.41;76.81;99258.34;5111183;28;20109;-84
2021/12/10 01:01:24;;;;;;;1.00;0.98;;;;;;;4.42;77.01;99256.59;5098458;29;20098;-83
2021/12/10 01:04:13;;;;;;;0.50;0.50;;;;;;;4.36;76.73;99248.97;5105892;28;20175;-83
2021/12/10 01:06:48;;;;;;;0.68;0.68;;;;;;;4.47;76.35;99246.09;5100333;28;20054;-84
2021/12/10 01:09:22;;;;;;;0.50;0.50;;;;;;;4.48;76.73;99232.22;5096888;28;20015;-84
2021/12/10 01:12:04;;;;;;;0.75;0.75;;;;;;;4.46;76.17;99239.19;5112427;28;20058;-83
2021/12/10 01:28:59;;;;;;;0.50;0.50;;;;;;;4.40;77.18;99202.09;5118037;28;20042;-83
2021/12/10 01:31:30;;;;;;;0.82;0.82;;;;;;;4.30;75.81;99181.63;5108303;28;20035;-82
2021/12/10 01:34:01;;;;;;;0.50;0.50;;;;;;;4.18;76.33;99188.81;5093180;28;20077;-82
2021/12/10 01:36:32;;;;;;;0.50;0.50;;;;;;;4.04;76.24;99180.53;5095871;28;20023;-82
2021/12/10 01:39:10;;;;;;;0.50;0.50;;;;;;;4.21;76.13;99174.91;5101683;28;20035;-82
2021/12/10 01:41:43;;;;;;;0.40;0.40;;;;;;;4.23;76.13;99165.31;5106252;28;20069;-82
2021/12/10 01:44:16;;;;;;;0.40;0.40;;;;;;;4.26;76.27;99154.84;5093508;28;20023;-83
2021/12/10 01:46:48;;;;;;;0.50;0.50;;;;;;;4.37;76.07;99157.19;5093776;28;20027;-81
2021/12/10 01:49:18;;;;;;;0.47;0.47;;;;;;;4.33;75.95;99148.63;5091044;28;20027;-82
2021/12/10 01:51:50;;;;;;;1.52;1.15;;;;;;;4.39;76.12;99143.25;5126211;28;20701;-82
2021/12/10 01:54:29;;;;;;;0.90;0.90;;;;;;;4.35;75.45;99133.81;5092091;28;20122;-83
2021/12/10 01:57:02;;;;;;;0.50;0.50;;;;;;;4.30;75.50;99135.72;5113176;28;20023;-82
2021/12/10 01:59:34;;;;;;;0.53;0.53;;;;;;;4.13;74.86;99124.91;5094898;28;20032;-82
2021/12/10 02:02:11;;;;;;;0.52;0.52;;;;;;;4.18;74.26;99123.03;5104993;29;20289;-82
2021/12/10 02:04:43;;;;;;;0.55;0.55;;;;;;;4.20;74.57;99129.06;5110633;28;20756;-82
2021/12/10 02:07:20;;;;;;;0.40;0.40;;;;;;;4.34;75.24;99111.34;5110576;29;20031;-82
2021/12/10 02:09:52;;;;;;;0.50;0.50;;;;;;;4.12;74.48;99105.91;5093891;28;20043;-82
2021/12/10 02:12:23;;;;;;;2.75;2.42;;;;;;;4.18;75.16;99099.69;5095066;28;20117;-82
2021/12/10 02:15:00;;;;;;;0.40;0.40;;;;;;;4.18;75.13;99082.38;5100147;28;20047;-83
2021/12/10 02:17:34;;;;;;;0.98;0.98;;;;;;;4.25;74.83;99067.50;5112614;28;20031;-82
2021/12/10 02:20:10;;;;;;;0.50;0.50;;;;;;;4.24;74.10;99074.41;5091471;29;20040;-82
2021/12/10 02:22:43;;;;;;;0.40;0.40;;;;;;;4.17;74.58;99062.50;5111527;28;20035;-82
2021/12/10 02:25:24;;;;;;;3.30;1.25;;;;;;;4.23;74.07;99051.94;5108448;29;20047;-82
2021/12/10 02:27:57;;;;;;;0.40;0.40;;;;;;;4.14;75.35;99056.53;5122055;28;20040;-82
2021/12/10 02:30:28;;;;;;;0.85;0.85;;;;;;;4.14;74.48;99047.00;5122647;28;20042;-82
2021/12/10 02:32:59;;;;;;;0.50;0.50;;;;;;;4.09;74.34;99044.53;5095633;28;20035;-81
2021/12/10 02:35:30;;;;;;;0.90;0.90;;;;;;;4.07;74.02;99033.34;5098550;28;20102;-81
2021/12/10 02:38:02;;;;;;;3.50;1.75;;;;;;;4.13;74.29;99034.94;5115792;28;20084;-82
2021/12/10 02:40:33;;;;;;;0.50;0.50;;;;;;;4.20;74.61;99026.06;5108175;28;20248;-82
2021/12/10 02:43:09;;;;;;;0.98;0.98;;;;;;;4.04;73.66;99017.84;5123218;28;20065;-82
2021/12/10 02:45:43;;;;;;;0.40;0.40;;;;;;;4.04;74.85;99012.66;5096171;28;20097;-82
2021/12/10 02:48:15;;;;;;;0.40;0.40;;;;;;;4.08;73.94;99009.09;5091843;29;20034;-82
2021/12/10 02:50:47;;;;;;;0.40;0.40;;;;;;;3.93;74.29;98996.53;5088416;28;20043;-82
2021/12/10 02:53:26;;;;;;;0.40;0.40;;;;;;;3.98;74.25;98992.06;5115315;28;20032;-81
2021/12/10 02:55:58;;;;;;;0.40;0.40;;;;;;;4.06;73.95;98995.31;5126909;28;20039;-81
2021/12/10 02:58:29;;;;;;;0.40;0.40;;;;;;;3.94;74.27;98987.84;5119923;28;20436;-81
2021/12/10 03:01:15;;;;;;;0.60;0.60;;;;;;;4.03;73.68;98987.59;5110007;29;20055;-80
2021/12/10 03:03:46;;;;;;;0.50;0.50;;;;;;;4.12;74.18;98985.63;5144002;28;20027;-80
2021/12/10 03:06:17;;;;;;;0.40;0.40;;;;;;;4.01;74.17;98978.16;5125531;28;20032;-80
2021/12/10 03:08:50;;;;;;;0.90;0.90;;;;;;;4.16;74.63;98974.28;5144016;28;20453;-81
2021/12/10 03:11:27;;;;;;;0.65;0.65;;;;;;;3.97;74.12;98971.38;5102617;29;20044;-81
2021/12/10 03:14:05;;;;;;;3.50;2.05;;;;;;;3.95;73.94;98961.00;5101745;29;20497;-81
2021/12/10 03:16:39;;;;;;;0.43;0.43;;;;;;;4.12;73.97;98960.53;5101928;28;20105;-80
2021/12/10 03:19:09;;;;;;;0.50;0.50;;;;;;;4.16;73.54;98950.94;5109743;28;20038;-80
2021/12/10 03:21:44;;;;;;;0.50;0.50;;;;;;;4.09;73.20;98952.84;5107184;23;20238;-85
2021/12/10 03:24:18;;;;;;;0.40;0.40;;;;;;;3.91;73.82;98941.25;5100687;28;20046;-86
2021/12/10 03:26:54;;;;;;;0.40;0.40;;;;;;;3.87;73.98;98943.09;5094340;29;20053;-86
2021/12/10 03:29:28;;;;;;;0.73;0.73;;;;;;;3.90;74.12;98957.72;5131835;28;20036;-85
2021/12/10 03:32:01;;;;;;;0.50;0.50;;;;;;;3.90;74.52;98955.13;5106167;28;20543;-86
2021/12/10 03:34:33;;;;;;;0.73;0.73;;;;;;;3.97;74.20;98946.25;5097253;29;20039;-85
2021/12/10 03:37:05;;;;;;;2.55;1.83;;;;;;;3.92;74.19;98937.75;5102615;29;20413;-85
2021/12/10 03:39:36;;;;;;;0.50;0.50;;;;;;;3.99;73.61;98920.25;5095706;29;20051;-86
2021/12/10 03:42:07;;;;;;;0.40;0.40;;;;;;;3.96;74.43;98926.38;5096144;29;20078;-86
2021/12/10 03:44:38;;;;;;;0.50;0.50;;;;;;;3.90;73.62;98926.56;5096984;29;20405;-86
2021/12/10 03:47:11;;;;;;;0.93;0.93;;;;;;;3.93;73.39;98916.09;5101012;29;20027;-85
2021/12/10 03:49:41;;;;;;;0.50;0.50;;;;;;;4.00;74.11;98911.56;5094204;28;20035;-86
2021/12/10 03:52:12;;;;;;;0.50;0.50;;;;;;;3.79;73.43;98911.31;5102930;29;20491;-86
2021/12/10 03:54:43;;;;;;;0.50;0.50;;;;;;;3.88;74.06;98910.19;5094988;28;20151;-86
2021/12/10 03:57:14;;;;;;;0.65;0.65;;;;;;;3.94;73.22;98912.59;5113583;29;20027;-86
2021/12/10 03:59:45;;;;;;;0.52;0.52;;;;;;;3.83;74.61;98905.13;5095042;29;20035;-87
2021/12/10 04:02:15;;;;;;;1.13;1.13;;;;;;;3.94;73.54;98900.50;5107933;28;20055;-85
2021/12/10 04:04:49;;;;;;;0.50;0.50;;;;;;;3.87;73.82;98896.38;5099223;29;20043;-86
2021/12/10 04:07:25;;;;;;;0.40;0.40;;;;;;;3.93;73.31;98878.03;5085419;29;20087;-86
2021/12/10 04:09:56;;;;;;;0.47;0.47;;;;;;;4.00;74.35;98878.72;5112461;28;20068;-86
2021/12/10 04:12:26;;;;;;;1.45;0.95;;;;;;;4.00;73.42;98870.06;5099234;29;20063;-86
2021/12/10 04:14:57;;;;;;;2.25;2.05;;;;;;;3.83;74.05;98875.75;5084381;29;20035;-86
2021/12/10 04:17:28;;;;;;;1.00;1.00;;;;;;;3.85;73.58;98864.44;5101255;29;20140;-85
2021/12/10 04:19:59;;;;;;;0.38;0.38;;;;;;;3.88;73.32;98873.88;5099537;29;20039;-86
2021/12/10 04:22:32;;;;;;;0.50;0.50;;;;;;;3.78;74.16;98862.91;5081382;29;20094;-86
2021/12/10 04:25:08;;;;;;;0.40;0.40;;;;;;;3.94;74.36;98858.97;5100032;28;20557;-85
2021/12/10 04:27:42;;;;;;;0.40;0.40;;;;;;;3.81;74.05;98862.81;5099145;29;20099;-86
2021/12/10 04:30:13;;;;;;;;;;;;;;;3.86;74.49;98860.06;5088527;29;20119;-85
2021/12/10 04:32:45;;;;;;;0.40;0.40;;;;;;;3.96;74.42;98845.94;5113657;29;19953;-86
2021/12/10 04:35:18;;;;;;;1.00;0.95;;;;;;;4.00;74.16;98844.09;5107445;29;20039;-87
2021/12/10 04:37:52;;;;;;;1.95;1.42;;;;;;;3.88;73.64;98838.41;5095042;29;20034;-87
2021/12/10 04:40:23;;;;;;;1.02;1.02;;;;;;;3.93;74.21;98830.44;5095320;29;20040;-86
2021/12/10 04:42:53;;;;;;;0.50;0.50;;;;;;;3.87;75.01;98833.25;5108185;29;20510;-87
2021/12/10 04:45:24;;;;;;;1.08;0.65;;;;;;;3.89;74.06;98837.47;5109582;28;20038;-86
2021/12/10 04:47:55;;;;;;;0.50;0.50;;;;;;;3.88;74.03;98825.44;5110907;28;20008;-87
2021/12/10 04:50:28;;;;;;;0.40;0.40;;;;;;;3.90;74.68;98820.19;5136412;28;20030;-86
2021/12/10 04:52:58;;;;;;;0.63;0.63;;;;;;;3.93;74.25;98820.06;5106537;29;20051;-87
2021/12/10 04:55:29;;;;;;;0.35;0.35;;;;;;;3.90;74.79;98817.59;5096459;29;20032;-87
2021/12/10 04:58:00;;;;;;;0.45;0.45;;;;;;;3.94;74.57;98817.44;5083126;29;20028;-86
2021/12/10 05:00:42;;;;;;;0.50;0.50;;;;;;;4.02;74.09;98814.59;5097878;29;20126;-86
2021/12/10 05:03:13;;;;;;;0.50;0.50;;;;;;;3.95;74.42;98810.50;5100460;29;20059;-87
2021/12/10 05:05:45;;;;;;;0.50;0.50;;;;;;;3.91;73.91;98814.09;5097502;29;20047;-86
2021/12/10 05:08:15;;;;;;;0.45;0.45;;;;;;;3.98;74.26;98807.81;5081515;29;20083;-87
2021/12/10 05:10:46;;;;;;;0.50;0.50;;;;;;;3.86;75.06;98797.81;5096208;29;20490;-87
2021/12/10 05:13:16;;;;;;;0.75;0.75;;;;;;;3.86;74.91;98792.63;5083648;29;20036;-86
2021/12/10 05:15:54;;;;;;;0.50;0.50;;;;;;;3.89;74.45;98783.00;5095367;29;20071;-85
2021/12/10 05:18:27;;;;;;;0.50;0.50;;;;;;;3.87;74.57;98773.56;5114291;29;20163;-87
2021/12/10 05:20:58;;;;;;;0.70;0.70;;;;;;;3.98;73.68;98768.03;5080667;29;20433;-86
2021/12/10 05:23:29;;;;;;;0.60;0.60;;;;;;;3.70;74.75;98766.31;5074268;29;20036;-85
2021/12/10 05:25:59;;;;;;;0.50;0.50;;;;;;;3.67;75.03;98759.47;5097784;29;20379;-86
2021/12/10 05:28:31;;;;;;;0.47;0.47;;;;;;;3.62;75.53;98753.56;5089892;28;20036;-85
2021/12/10 05:31:02;;;;;;;1.40;1.30;;;;;;;3.80;73.83;98743.53;5094982;29;20047;-85
2021/12/10 05:33:33;;;;;;;0.50;0.50;;;;;;;3.82;74.54;98750.34;5096601;29;20787;-87
2021/12/10 05:36:05;;;;;;;0.40;0.40;;;;;;;3.75;74.33;98747.13;5081489;29;20051;-86
2021/12/10 05:38:36;;;;;;;0.40;0.40;;;;;;;3.72;74.72;98749.81;5097773;29;20028;-86
2021/12/10 05:41:10;;;;;;;1.45;1.35;;;;;;;3.88;74.29;98738.94;5096140;29;20059;-86
2021/12/10 05:43:41;;;;;;;;;;;;;;;3.88;74.27;98739.81;5099909;29;20028;-88
2021/12/10 05:46:12;;;;;;;0.50;0.50;;;;;;;3.83;74.45;98735.66;5098559;29;19925;-88
2021/12/10 05:48:44;;;;;;;1.15;1.15;;;;;;;3.75;74.83;98734.16;5080773;29;20043;-88
2021/12/10 05:51:14;;;;;;;2.35;2.15;;;;;;;3.88;74.48;98733.75;5081839;29;20043;-88
2021/12/10 05:53:45;;;;;;;19.35;1.60;;;;;;;3.92;74.32;98730.19;5065652;29;20030;-88
2021/12/10 05:56:17;;;;;;;1.95;1.15;;;;;;;3.88;74.33;98713.00;5082954;29;20028;-90
2021/12/10 05:58:48;;;;;;;0.50;0.50;;;;;;;3.78;74.16;98715.88;5084585;29;20028;-89
2021/12/10 06:01:21;;;;;;;0.60;0.60;;;;;;;3.85;73.84;98705.31;5081833;29;20066;-89
2021/12/10 06:03:53;;;;;;;2.47;1.48;;;;;;;3.67;73.79;98704.16;5066327;29;20074;-89
2021/12/10 06:06:27;;;;;;;0.50;0.50;;;;;;;3.71;74.86;98711.78;5093186;29;20549;-89
2021/12/10 06:09:01;;;;;;;0.50;0.50;;;;;;;3.77;74.27;98701.22;5077680;29;20091;-89
2021/12/10 06:11:31;;;;;;;1.13;1.13;;;;;;;3.76;74.42;98709.88;5096320;29;20199;-89
2021/12/10 06:14:03;;;;;;;0.40;0.40;;;;;;;3.76;74.95;98699.50;5097136;28;20119;-89
2021/12/10 06:16:34;;;;;;;0.45;0.45;;;;;;;3.68;74.56;98691.13;5097815;29;20039;-89
2021/12/10 06:19:07;;;;;;;3.30;1.25;;;;;;;3.60;74.54;98698.28;5097391;29;20031;-89
2021/12/10 06:21:39;;;;;;;0.60;0.60;;;;;;;3.66;74.38;98692.94;5105959;29;20063;-89
2021/12/10 06:24:09;;;;;;;0.80;0.80;;;;;;;3.74;74.48;98695.28;5114073;28;20063;-89
2021/12/10 06:26:40;;;;;;;0.47;0.47;;;;;;;3.75;73.87;98687.47;5081502;29;20446;-88
2021/12/10 06:29:11;;;;;;;0.60;0.60;;;;;;;3.74;74.77;98683.16;5083114;29;20398;-89
2021/12/10 06:31:42;;;;;;;0.77;0.77;;;;;;;3.75;74.17;98676.22;5076157;29;20936;-89
2021/12/10 06:34:12;;;;;;;0.60;0.60;;;;;;;3.38;74.69;98683.41;5079327;28;20054;-89
2021/12/10 06:36:43;;;;;;;0.47;0.47;;;;;;;3.66;74.36;98682.56;5106649;29;20525;-90
2021/12/10 06:39:19;;;;;;;0.40;0.40;;;;;;;3.58;74.50;98682.78;5082977;29;20130;-89
2021/12/10 06:41:51;;;;;;;3.20;2.33;;;;;;;3.54;74.64;98672.56;5081659;29;20059;-89
2021/12/10 06:44:23;;;;;;;0.60;0.60;;;;;;;3.61;74.47;98664.56;5084829;28;20088;-90
2021/12/10 06:46:53;;;;;;;0.50;0.50;;;;;;;3.49;74.55;98669.28;5113288;29;20498;-89
2021/12/10 06:49:24;;;;;;;0.90;0.90;;;;;;;3.59;73.95;98668.09;5068327;28;20050;-90
2021/12/10 06:51:55;;;;;;;0.57;0.57;;;;;;;3.68;74.35;98665.19;5084335;29;20421;-89
2021/12/10 06:54:25;;;;;;;0.40;0.40;;;;;;;3.57;74.33;98667.28;5083450;28;20135;-90
2021/12/10 06:56:59;;;;;;;0.40;0.40;;;;;;;3.56;74.69;98670.78;5104358;29;20024;-90
2021/12/10 06:59:29;;;;;;;0.40;0.40;;;;;;;3.51;74.76;98659.72;5107270;28;20047;-91
2021/12/10 07:02:00;;;;;;;1.48;1.38;;;;;;;3.56;75.49;98665.59;5120816;28;20024;-91
2021/12/10 07:04:31;;;;;;;18.17;1.60;;;;;;;3.69;74.45;98669.47;5122457;28;20042;-91
2021/12/10 07:07:02;;;;;;;0.40;0.40;;;;;;;3.36;74.17;98654.06;5128906;28;20030;-89
2021/12/10 07:09:33;;;;;;;0.40;0.40;;;;;;;3.50;74.59;98665.78;5081566;29;20036;-92
2021/12/10 07:12:05;;;;;;;0.82;0.82;;;;;;;3.65;73.99;98664.44;5096042;29;20035;-89
2021/12/10 07:14:36;;;;;;;0.70;0.70;;;;;;;3.75;74.10;98661.53;5099569;29;20793;-90
2021/12/10 07:17:07;;;;;;;0.55;0.55;;;;;;;3.80;73.55;98665.69;5111566;29;20063;-89
2021/12/10 07:19:40;;;;;;;0.60;0.60;;;;;;;3.67;73.65;98666.09;5095958;29;20039;-89
2021/12/10 07:22:11;;;;;;;0.70;0.70;;;;;;;3.46;73.71;98660.69;5100039;29;20039;-90
2021/12/10 07:24:41;;;;;;;0.70;0.70;;;;;;;3.46;73.82;98665.03;5093041;29;20044;-90
2021/12/10 07:27:12;;;;;;;1.02;1.02;;;;;;;3.53;74.62;98663.06;5076158;29;20034;-90
2021/12/10 07:29:43;;;;;;;0.40;0.40;;;;;;;3.62;74.19;98663.66;5065766;29;20048;-90
2021/12/10 07:32:13;;;;;;;0.60;0.60;;;;;;;3.55;74.14;98666.47;5100159;29;20105;-90
2021/12/10 07:34:44;;;;;;;0.50;0.50;;;;;;;3.51;74.40;98662.31;5097420;29;20048;-90
2021/12/10 07:37:14;;;;;;;0.60;0.60;;;;;;;3.58;74.19;98663.81;5096472;29;20027;-90
2021/12/10 07:39:46;;;;;;;0.60;0.60;;;;;;;3.47;74.67;98661.56;5090692;29;20478;-90
2021/12/10 07:42:17;;;;;;;0.52;0.52;;;;;;;3.54;74.34;98657.00;5092408;28;20050;-89
2021/12/10 07:44:49;;;;;;;1.35;1.25;;;;;;;3.63;74.36;98656.72;5094734;29;20035;-90
2021/12/10 07:47:21;;;;;;;0.50;0.50;;;;;;;3.61;74.27;98667.16;5100105;28;20265;-89
2021/12/10 07:49:53;;;;;;;0.43;0.43;;;;;;;3.60;74.42;98656.81;5098348;29;20060;-89
2021/12/10 07:52:27;;;;;;;0.98;0.98;;;;;;;3.59;74.12;98650.78;5101510;29;20027;-89
2021/12/10 07:54:57;;;;;;;0.75;0.75;;;;;;;3.63;73.94;98651.53;5083379;29;20032;-89
2021/12/10 07:57:29;;;;;;;0.40;0.40;;;;;;;3.56;73.79;98634.47;5095935;29;20043;-89
2021/12/10 07:59:59;;;;;;;0.68;0.68;;;;;;;3.56;73.83;98650.03;5076852;29;20055;-89
2021/12/10 08:02:30;;;;;;;1.63;1.52;;;;;;;3.47;73.86;98646.00;5090726;29;20036;-90
2021/12/10 08:05:00;;;;;;;0.57;0.57;;;;;;;3.63;73.43;98643.75;5080301;29;20080;-89
2021/12/10 08:07:31;;;;;;;0.50;0.50;;;;;;;3.66;73.39;98641.06;5075975;29;20091;-89
2021/12/10 08:10:05;;;;;;;0.40;0.40;;;;;;;3.74;73.58;98643.41;5046012;29;20107;-90
2021/12/10 08:12:35;;;;;;;7.88;1.38;;;;;;;3.55;73.37;98640.53;5088940;28;20013;-90
2021/12/10 08:15:07;;;;;;;1.05;1.05;;;;;;;3.58;73.38;98653.44;5112883;28;20598;-89
2021/12/10 08:17:38;;;;;;;0.40;0.40;;;;;;;3.53;73.77;98650.13;5061044;29;20125;-90
2021/12/10 08:20:10;;;;;;;0.50;0.50;;;;;;;3.62;73.10;98645.50;5088939;28;20444;-89
2021/12/10 08:22:41;;;;;;;0.63;0.63;;;;;;;3.62;73.14;98639.44;5076472;29;20351;-89
2021/12/10 08:25:12;;;;;;;0.50;0.50;;;;;;;3.63;74.19;98641.16;5088217;29;20116;-89
2021/12/10 08:27:43;;;;;;;1.17;1.08;;;;;;;3.52;73.03;98645.81;5111846;29;20036;-89
2021/12/10 08:30:16;;;;;;;0.50;0.50;;;;;;;3.66;73.57;98637.59;5087918;29;20043;-88
2021/12/10 08:32:47;;;;;;;0.50;0.50;;;;;;;3.70;73.83;98634.03;5112634;29;20119;-89
2021/12/10 08:35:20;;;;;;;1.13;1.13;;;;;;;3.75;73.69;98635.59;5080834;29;20237;-90
2021/12/10 08:37:53;;;;;;;0.55;0.55;;;;;;;3.78;73.97;98632.88;5082509;29;20024;-89
2021/12/10 08:40:30;;;;;;;0.50;0.50;;;;;;;3.80;73.40;98637.16;5098316;29;20040;-88
2021/12/10 08:43:01;;;;;;;0.40;0.40;;;;;;;3.81;73.58;98628.47;5083353;29;20031;-89
2021/12/10 08:45:35;;;;;;;0.50;0.50;;;;;;;3.87;73.41;98628.28;5097588;29;20043;-90
2021/12/10 08:48:06;;;;;;;1.25;1.17;;;;;;;3.88;73.63;98624.78;5100872;29;20321;-89
2021/12/10 08:50:38;;;;;;;0.50;0.50;;;;;;;3.74;73.54;98628.69;5084355;29;20044;-89
2021/12/10 08:53:13;;;;;;;0.50;0.50;;;;;;;3.77;73.35;98622.56;5109224;29;20063;-88
2021/12/10 08:55:47;;;;;;;0.40;0.40;;;;;;;3.72;73.44;98630.47;5092431;29;20040;-90
2021/12/10 08:58:19;;;;;;;1.25;1.15;;;;;;;3.80;73.74;98632.84;5095759;28;20039;-88
2021/12/10 09:00:58;;;;;;;0.70;0.70;;;;;;;3.92;73.67;98631.59;5073332;29;20485;-89
2021/12/10 09:03:29;;;;;;;0.68;0.68;;;;;;;3.85;73.69;98633.53;5084856;29;20024;-90
2021/12/10 09:06:01;;;;;;;0.50;0.50;;;;;;;3.78;73.61;98632.03;5090377;29;20043;-89
2021/12/10 09:08:32;;;;;;;0.50;0.50;;;;;;;3.80;73.75;98626.78;5139650;23;20055;-80
2021/12/10 09:11:05;;;;;;;0.60;0.60;;;;;;;4.03;73.16;98623.44;5101636;28;20043;-77
2021/12/10 09:13:36;;;;;;;0.40;0.40;;;;;;;3.99;73.59;98622.69;5155508;28;20026;-81
2021/12/10 09:16:13;;;;;;;0.60;0.60;;;;;;;3.97;73.34;98627.06;5110191;28;20039;-78
2021/12/10 09:18:44;;;;;;;2.05;1.58;;;;;;;3.94;73.34;98624.56;5104555;28;20034;-81
2021/12/10 09:26:27;;;;;;;0.50;0.50;;;;;;;4.04;72.96;98633.75;5149486;28;20050;-82
2021/12/10 09:29:12;;;;;;;0.60;0.60;;;;;;;4.00;73.19;98626.13;5117429;28;20055;-80
2021/12/10 09:31:44;;;;;;;1.95;1.15;;;;;;;4.07;73.32;98625.00;5131765;28;20599;-80
2021/12/10 09:34:17;;;;;;;0.70;0.70;;;;;;;4.17;72.48;98625.56;5146492;28;20511;-82
2021/12/10 09:36:52;;;;;;;1.57;1.57;;;;;;;3.96;73.27;98625.38;5116260;28;20053;-82
2021/12/10 09:39:23;;;;;;;0.50;0.50;;;;;;;4.12;72.53;98622.25;5104340;28;20436;-81
2021/12/10 09:41:56;;;;;;;0.80;0.80;;;;;;;3.93;72.16;98623.75;5105156;28;20037;-81
2021/12/10 09:44:26;;;;;;;1.38;0.77;;;;;;;3.94;72.21;98630.63;5125212;28;20130;-80
2021/12/10 09:46:58;;;;;;;0.45;0.45;;;;;;;3.94;72.62;98637.53;5129582;28;20026;-80
2021/12/10 09:49:28;;;;;;;0.50;0.50;;;;;;;4.03;73.23;98626.84;5116153;28;20080;-80
2021/12/10 09:52:04;;;;;;;2.30;1.13;;;;;;;3.93;72.56;98628.06;5116158;28;20056;-81
2021/12/10 09:54:35;;;;;;;0.70;0.70;;;;;;;4.14;73.07;98629.09;5145697;28;20100;-81
2021/12/10 09:57:09;;;;;;;0.50;0.50;;;;;;;4.23;72.20;98627.94;5113944;28;20031;-80
2021/12/10 09:59:42;;;;;;;0.95;0.88;;;;;;;4.08;71.64;98629.31;5135361;28;20598;-81
2021/12/10 10:02:14;;;;;;;0.70;0.70;;;;;;;4.16;71.72;98634.25;5096970;28;20035;-80
2021/12/10 10:04:49;;;;;;;0.40;0.40;;;;;;;4.23;72.04;98620.97;5134524;28;20051;-80
2021/12/10 10:07:24;;;;;;;0.50;0.50;;;;;;;4.13;71.33;98624.81;5120024;28;20026;-80
2021/12/10 10:10:13;;;;;;;0.50;0.50;;;;;;;4.22;72.62;98619.28;5147491;28;20038;-79
2021/12/10 10:12:46;;;;;;;0.98;0.98;;;;;;;4.22;72.24;98614.09;5128050;28;20045;-80
2021/12/10 10:15:24;;;;;;;2.33;0.85;;;;;;;4.24;71.77;98622.69;5134182;28;20031;-80
2021/12/10 10:17:58;;;;;;;0.50;0.50;;;;;;;4.25;71.51;98610.56;5129210;28;20065;-80
2021/12/10 10:20:31;;;;;;;0.50;0.50;;;;;;;4.30;69.91;98598.25;5147290;28;20038;-80
2021/12/10 10:23:02;;;;;;;0.97;0.97;;;;;;;4.15;71.28;98601.41;5117475;28;20069;-80
2021/12/10 10:25:35;;;;;;;1.48;1.13;;;;;;;4.25;70.73;98588.03;5126457;28;20047;-81
2021/12/10 10:28:06;;;;;;;0.68;0.68;;;;;;;4.29;70.95;98585.34;5118400;28;20027;-81
2021/12/10 10:30:41;;;;;;;0.50;0.50;;;;;;;4.14;71.25;98589.31;5105855;28;20791;-81
2021/12/10 10:33:13;;;;;;;1.23;1.13;;;;;;;4.34;71.51;98586.84;5109888;28;20032;-80
2021/12/10 10:35:47;;;;;;;0.60;0.60;;;;;;;4.17;69.60;98578.84;5120249;28;20538;-81
2021/12/10 10:38:19;;;;;;;5.78;2.60;;;;;;;4.23;69.85;98579.44;5113770;28;20053;-80
2021/12/10 10:40:54;;;;;;;0.50;0.50;;;;;;;4.30;71.24;98580.09;5126978;28;20047;-80
2021/12/10 10:43:26;;;;;;;0.47;0.47;;;;;;;4.15;70.49;98591.00;5124234;28;20042;-80
2021/12/10 10:45:57;;;;;;;0.97;0.97;;;;;;;4.25;70.86;98571.63;5137814;28;20079;-79
2021/12/10 10:48:28;;;;;;;0.50;0.50;;;;;;;4.14;68.82;98578.94;5142170;28;20057;-80
2021/12/10 10:51:10;;;;;;;0.60;0.60;;;;;;;4.24;69.33;98575.13;5139868;28;20414;-80
2021/12/10 10:53:53;;;;;;;0.60;0.60;;;;;;;4.17;68.29;98581.44;5112540;28;20057;-81
2021/12/10 10:56:37;;;;;;;0.60;0.60;;;;;;;4.23;68.39;98578.63;5143283;28;20049;-81
2021/12/10 10:59:16;;;;;;;2.25;2.10;;;;;;;4.03;69.79;98574.97;5127368;28;20043;-81
2021/12/10 11:02:03;;;;;;;0.40;0.40;;;;;;;4.16;69.88;98571.94;5128711;28;20889;-80
2021/12/10 11:04:41;;;;;;;0.75;0.75;;;;;;;4.24;68.82;98572.53;5150068;28;20583;-78
2021/12/10 11:07:26;;;;;;;0.50;0.50;;;;;;;4.16;69.09;98583.16;5161688;28;20029;-81
2021/12/10 11:10:02;;;;;;;0.82;0.82;;;;;;;4.25;68.81;98584.59;5140157;28;20035;-80
2021/12/10 11:12:36;;;;;;;0.40;0.40;;;;;;;4.38;69.78;98578.06;5131824;28;20404;-79
2021/12/10 11:15:12;;;;;;;0.80;0.80;;;;;;;4.48;69.64;98588.13;5135071;28;20042;-78
2021/12/10 11:17:54;;;;;;;0.73;0.73;;;;;;;4.45;69.13;98583.03;5135441;28;20086;-78
2021/12/10 11:20:35;;;;;;;0.50;0.50;;;;;;;4.13;68.40;98582.44;5111464;28;20097;-78
2021/12/10 11:23:08;;;;;;;0.50;0.50;;;;;;;4.34;68.29;98580.81;5155426;28;20034;-78
2021/12/10 11:25:48;;;;;;;0.70;0.70;;;;;;;4.52;70.55;98594.88;5109413;28;20035;-78
2021/12/10 11:28:26;;;;;;;0.40;0.40;;;;;;;4.45;68.34;98586.50;5137899;28;20027;-79
2021/12/10 11:31:03;;;;;;;0.40;0.40;;;;;;;4.48;69.20;98588.13;5137474;28;20125;-80
2021/12/10 11:33:57;;;;;;;1.13;1.05;;;;;;;4.39;68.72;98579.75;5109138;28;20100;-79
2021/12/10 11:36:28;;;;;;;0.57;0.57;;;;;;;4.45;68.92;98588.22;5096426;28;20102;-80
2021/12/10 11:39:00;;;;;;;0.40;0.40;;;;;;;4.52;69.78;98590.56;5126690;28;20062;-80
2021/12/10 11:41:31;;;;;;;0.60;0.60;;;;;;;4.52;68.61;98600.94;5132906;28;20046;-80
2021/12/10 11:47:12;;;;;;;0.67;0.67;;;;;;;4.80;69.41;98599.91;5153148;28;20068;-80
2021/12/10 11:49:44;;;;;;;0.80;0.80;;;;;;;4.70;70.09;98589.00;5140898;28;20038;-79
2021/12/10 11:52:25;;;;;;;0.82;0.82;;;;;;;4.70;68.64;98594.22;5134118;28;20109;-81
2021/12/10 11:55:06;;;;;;;0.80;0.80;;;;;;;4.76;67.60;98597.47;5117621;28;20041;-79
2021/12/10 11:57:41;;;;;;;0.40;0.40;;;;;;;4.91;69.85;98607.31;5108582;28;20045;-80
2021/12/10 12:00:22;;;;;;;1.02;1.02;;;;;;;4.97;70.56;98601.88;5129431;28;20053;-80
2021/12/10 12:02:58;;;;;;;0.40;0.40;;;;;;;4.98;69.87;98600.97;5137206;28;20056;-81
2021/12/10 12:05:33;;;;;;;0.43;0.43;;;;;;;5.03;69.85;98611.19;5142183;28;20097;-82
2021/12/10 12:08:11;;;;;;;0.70;0.70;;;;;;;4.99;68.90;98609.59;5160102;28;20216;-80
2021/12/10 12:10:50;;;;;;;1.67;1.58;;;;;;;5.02;69.43;98609.50;5131875;28;20092;-82
2021/12/10 12:13:38;;;;;;;0.50;0.50;;;;;;;5.04;70.56;98611.13;5147710;28;20524;-81
2021/12/10 12:16:13;;;;;;;0.40;0.40;;;;;;;5.10;69.43;98611.78;5121366;28;20034;-81
2021/12/10 12:18:47;;;;;;;0.55;0.55;;;;;;;5.11;70.61;98603.97;5134276;28;20500;-80
2021/12/10 12:27:06;;;;;;;0.65;0.65;;;;;;;5.06;70.21;98618.03;5136283;28;20184;-81
2021/12/10 12:29:37;;;;;;;;;;;;;;;5.16;70.06;98621.97;5133155;28;20057;-81
2021/12/10 12:32:16;;;;;;;1.92;1.80;;;;;;;5.22;70.38;98620.88;5135473;28;19949;-81
2021/12/10 12:34:53;;;;;;;0.55;0.55;;;;;;;5.19;70.83;98622.69;5135436;28;20105;-82
2021/12/10 12:37:24;;;;;;;1.10;1.10;;;;;;;5.21;70.09;98625.22;5133390;28;20060;-83
2021/12/10 12:40:00;;;;;;;5.03;1.27;;;;;;;5.22;70.35;98624.34;5134515;28;20042;-81